sensor_id;sensor_type;location;lat;lon;timestamp;P1;durP1;ratioP1;P2;durP2;ratioP2
24409;SDS011;12543;53.364;-1.504;2023-09-19T00:03:08;4.50;;;1.10;;
24409;SDS011;12543;53.364;-1.504;2023-09-19T00:05:37;4.85;;;0.93;;
24409;SDS011;12543;53.364;-1.504;2023-09-19T00:08:11;3.20;;;1.30;;
24409;SDS011;12543;53.364;-1.504;2023-09-19T00:10:43;2.20;;;0.98;;
24409;SDS011;12543;53.364;-1.504;2023-09-19T00:13:11;3.13;;;1.00;;
24409;SDS011;12543;53.364;-1.504;2023-09-19T00:15:43;4.95;;;1.10;;
24409;SDS011;12543;53.364;-1.504;2023-09-19T00:18:16;2.97;;;0.90;;
24409;SDS011;12543;53.364;-1.504;2023-09-19T00:20:43;3.58;;;0.80;;
24409;SDS011;12543;53.364;-1.504;2023-09-19T00:23:14;4.65;;;1.00;;
24409;SDS011;12543;53.364;-1.504;2023-09-19T00:25:41;2.88;;;0.82;;
24409;SDS011;12543;53.364;-1.504;2023-09-19T00:28:09;3.77;;;1.27;;
24409;SDS011;12543;53.364;-1.504;2023-09-19T00:33:05;3.85;;;1.08;;
24409;SDS011;12543;53.364;-1.504;2023-09-19T00:35:34;2.80;;;0.90;;
24409;SDS011;12543;53.364;-1.504;2023-09-19T00:38:03;2.35;;;0.90;;
24409;SDS011;12543;53.364;-1.504;2023-09-19T00:40:31;4.33;;;1.13;;
24409;SDS011;12543;53.364;-1.504;2023-09-19T00:42:59;3.70;;;1.08;;
24409;SDS011;12543;53.364;-1.504;2023-09-19T00:45:27;2.65;;;0.90;;
24409;SDS011;12543;53.364;-1.504;2023-09-19T00:47:55;3.17;;;0.75;;
24409;SDS011;12543;53.364;-1.504;2023-09-19T00:50:25;5.28;;;1.20;;
24409;SDS011;12543;53.364;-1.504;2023-09-19T00:52:54;4.82;;;1.23;;
24409;SDS011;12543;53.364;-1.504;2023-09-19T00:55:25;6.20;;;1.00;;
24409;SDS011;12543;53.364;-1.504;2023-09-19T00:57:55;2.78;;;0.90;;
24409;SDS011;12543;53.364;-1.504;2023-09-19T01:00:23;4.47;;;1.10;;
24409;SDS011;12543;53.364;-1.504;2023-09-19T01:02:51;3.38;;;1.35;;
24409;SDS011;12543;53.364;-1.504;2023-09-19T01:05:19;3.08;;;0.98;;
24409;SDS011;12543;53.364;-1.504;2023-09-19T01:07:46;5.88;;;0.93;;
24409;SDS011;12543;53.364;-1.504;2023-09-19T01:10:21;4.57;;;1.65;;
24409;SDS011;12543;53.364;-1.504;2023-09-19T01:15:38;4.47;;;1.45;;
24409;SDS011;12543;53.364;-1.504;2023-09-19T01:20:57;4.28;;;1.17;;
24409;SDS011;12543;53.364;-1.504;2023-09-19T01:26:07;4.93;;;1.27;;
24409;SDS011;12543;53.364;-1.504;2023-09-19T01:31:09;4.55;;;1.25;;
24409;SDS011;12543;53.364;-1.504;2023-09-19T01:36:23;5.47;;;1.15;;
24409;SDS011;12543;53.364;-1.504;2023-09-19T01:38:51;7.75;;;1.30;;
24409;SDS011;12543;53.364;-1.504;2023-09-19T01:41:26;6.72;;;1.38;;
24409;SDS011;12543;53.364;-1.504;2023-09-19T01:43:57;5.32;;;1.40;;
24409;SDS011;12543;53.364;-1.504;2023-09-19T01:46:32;5.20;;;1.30;;
24409;SDS011;12543;53.364;-1.504;2023-09-19T01:51:34;3.78;;;1.50;;
24409;SDS011;12543;53.364;-1.504;2023-09-19T01:54:09;7.28;;;1.63;;
24409;SDS011;12543;53.364;-1.504;2023-09-19T01:56:42;5.20;;;1.38;;
24409;SDS011;12543;53.364;-1.504;2023-09-19T01:59:23;6.85;;;1.73;;
24409;SDS011;12543;53.364;-1.504;2023-09-19T02:01:54;4.45;;;1.13;;
24409;SDS011;12543;53.364;-1.504;2023-09-19T02:04:23;5.13;;;1.67;;
24409;SDS011;12543;53.364;-1.504;2023-09-19T02:06:50;4.00;;;1.30;;
24409;SDS011;12543;53.364;-1.504;2023-09-19T02:09:24;3.30;;;1.35;;
24409;SDS011;12543;53.364;-1.504;2023-09-19T02:11:53;5.03;;;1.42;;
24409;SDS011;12543;53.364;-1.504;2023-09-19T02:14:22;6.40;;;1.20;;
24409;SDS011;12543;53.364;-1.504;2023-09-19T02:16:50;6.53;;;1.70;;
24409;SDS011;12543;53.364;-1.504;2023-09-19T02:19:17;9.17;;;2.00;;
24409;SDS011;12543;53.364;-1.504;2023-09-19T02:21:45;5.55;;;1.48;;
24409;SDS011;12543;53.364;-1.504;2023-09-19T02:24:12;4.63;;;1.53;;
24409;SDS011;12543;53.364;-1.504;2023-09-19T02:26:41;4.93;;;1.40;;
24409;SDS011;12543;53.364;-1.504;2023-09-19T02:29:10;7.03;;;1.38;;
24409;SDS011;12543;53.364;-1.504;2023-09-19T02:31:39;4.50;;;1.15;;
24409;SDS011;12543;53.364;-1.504;2023-09-19T02:34:07;6.50;;;1.60;;
24409;SDS011;12543;53.364;-1.504;2023-09-19T02:36:35;4.10;;;1.55;;
24409;SDS011;12543;53.364;-1.504;2023-09-19T02:39:03;4.63;;;1.40;;
24409;SDS011;12543;53.364;-1.504;2023-09-19T02:41:32;4.53;;;1.23;;
24409;SDS011;12543;53.364;-1.504;2023-09-19T02:44:00;3.85;;;1.60;;
24409;SDS011;12543;53.364;-1.504;2023-09-19T02:46:28;3.42;;;1.23;;
24409;SDS011;12543;53.364;-1.504;2023-09-19T02:48:56;11.20;;;2.05;;
24409;SDS011;12543;53.364;-1.504;2023-09-19T02:51:24;4.90;;;1.40;;
24409;SDS011;12543;53.364;-1.504;2023-09-19T02:53:51;8.13;;;1.90;;
24409;SDS011;12543;53.364;-1.504;2023-09-19T02:56:19;7.97;;;1.80;;
24409;SDS011;12543;53.364;-1.504;2023-09-19T02:58:47;6.47;;;1.23;;
24409;SDS011;12543;53.364;-1.504;2023-09-19T03:01:15;4.10;;;1.45;;
24409;SDS011;12543;53.364;-1.504;2023-09-19T03:03:42;7.00;;;2.10;;
24409;SDS011;12543;53.364;-1.504;2023-09-19T03:06:11;5.68;;;1.27;;
24409;SDS011;12543;53.364;-1.504;2023-09-19T03:08:39;4.95;;;1.63;;
24409;SDS011;12543;53.364;-1.504;2023-09-19T03:11:10;7.70;;;1.80;;
24409;SDS011;12543;53.364;-1.504;2023-09-19T03:13:39;10.20;;;1.80;;
24409;SDS011;12543;53.364;-1.504;2023-09-19T03:16:10;5.70;;;1.58;;
24409;SDS011;12543;53.364;-1.504;2023-09-19T03:18:39;6.70;;;1.98;;
24409;SDS011;12543;53.364;-1.504;2023-09-19T03:21:06;5.60;;;1.45;;
24409;SDS011;12543;53.364;-1.504;2023-09-19T03:23:34;6.93;;;1.80;;
24409;SDS011;12543;53.364;-1.504;2023-09-19T03:26:01;11.30;;;2.10;;
24409;SDS011;12543;53.364;-1.504;2023-09-19T03:28:33;7.30;;;2.20;;
24409;SDS011;12543;53.364;-1.504;2023-09-19T03:31:05;6.45;;;1.92;;
24409;SDS011;12543;53.364;-1.504;2023-09-19T03:33:35;7.38;;;2.03;;
24409;SDS011;12543;53.364;-1.504;2023-09-19T03:36:03;4.88;;;1.80;;
24409;SDS011;12543;53.364;-1.504;2023-09-19T03:38:32;8.32;;;1.95;;
24409;SDS011;12543;53.364;-1.504;2023-09-19T03:41:03;7.95;;;1.65;;
24409;SDS011;12543;53.364;-1.504;2023-09-19T03:43:33;3.65;;;1.48;;
24409;SDS011;12543;53.364;-1.504;2023-09-19T03:46:02;8.60;;;2.00;;
24409;SDS011;12543;53.364;-1.504;2023-09-19T03:48:36;4.72;;;1.40;;
24409;SDS011;12543;53.364;-1.504;2023-09-19T03:51:04;6.32;;;1.55;;
24409;SDS011;12543;53.364;-1.504;2023-09-19T03:53:32;7.25;;;1.80;;
24409;SDS011;12543;53.364;-1.504;2023-09-19T03:56:00;5.55;;;1.80;;
24409;SDS011;12543;53.364;-1.504;2023-09-19T03:58:31;6.75;;;1.63;;
24409;SDS011;12543;53.364;-1.504;2023-09-19T04:01:00;7.47;;;1.88;;
24409;SDS011;12543;53.364;-1.504;2023-09-19T04:03:28;4.97;;;1.60;;
24409;SDS011;12543;53.364;-1.504;2023-09-19T04:06:02;9.20;;;1.90;;
24409;SDS011;12543;53.364;-1.504;2023-09-19T04:08:30;9.47;;;2.07;;
24409;SDS011;12543;53.364;-1.504;2023-09-19T04:10:58;8.93;;;2.03;;
24409;SDS011;12543;53.364;-1.504;2023-09-19T04:13:26;4.78;;;1.60;;
24409;SDS011;12543;53.364;-1.504;2023-09-19T04:18:22;2.92;;;1.27;;
24409;SDS011;12543;53.364;-1.504;2023-09-19T04:20:50;5.60;;;1.40;;
24409;SDS011;12543;53.364;-1.504;2023-09-19T04:23:18;9.40;;;2.00;;
24409;SDS011;12543;53.364;-1.504;2023-09-19T04:25:48;8.55;;;2.22;;
24409;SDS011;12543;53.364;-1.504;2023-09-19T04:28:17;7.65;;;2.03;;
24409;SDS011;12543;53.364;-1.504;2023-09-19T04:30:45;7.72;;;1.70;;
24409;SDS011;12543;53.364;-1.504;2023-09-19T04:33:13;4.63;;;2.00;;
24409;SDS011;12543;53.364;-1.504;2023-09-19T04:35:41;7.20;;;1.95;;
24409;SDS011;12543;53.364;-1.504;2023-09-19T04:38:13;6.95;;;1.73;;
24409;SDS011;12543;53.364;-1.504;2023-09-19T04:40:41;5.80;;;1.52;;
24409;SDS011;12543;53.364;-1.504;2023-09-19T04:43:09;3.73;;;1.33;;
24409;SDS011;12543;53.364;-1.504;2023-09-19T04:45:36;4.45;;;1.45;;
24409;SDS011;12543;53.364;-1.504;2023-09-19T04:48:05;7.95;;;1.90;;
24409;SDS011;12543;53.364;-1.504;2023-09-19T04:50:35;6.78;;;1.60;;
24409;SDS011;12543;53.364;-1.504;2023-09-19T04:53:03;4.20;;;1.20;;
24409;SDS011;12543;53.364;-1.504;2023-09-19T04:55:31;5.70;;;1.40;;
24409;SDS011;12543;53.364;-1.504;2023-09-19T04:57:59;5.35;;;1.40;;
24409;SDS011;12543;53.364;-1.504;2023-09-19T05:00:27;5.05;;;1.45;;
24409;SDS011;12543;53.364;-1.504;2023-09-19T05:02:57;6.40;;;1.35;;
24409;SDS011;12543;53.364;-1.504;2023-09-19T05:05:25;5.28;;;1.52;;
24409;SDS011;12543;53.364;-1.504;2023-09-19T05:07:53;5.53;;;1.50;;
24409;SDS011;12543;53.364;-1.504;2023-09-19T05:10:21;6.88;;;1.88;;
24409;SDS011;12543;53.364;-1.504;2023-09-19T05:12:49;5.00;;;1.98;;
24409;SDS011;12543;53.364;-1.504;2023-09-19T05:15:20;6.53;;;1.52;;
24409;SDS011;12543;53.364;-1.504;2023-09-19T05:17:48;4.20;;;1.45;;
24409;SDS011;12543;53.364;-1.504;2023-09-19T05:20:24;7.03;;;1.50;;
24409;SDS011;12543;53.364;-1.504;2023-09-19T05:23:03;6.93;;;1.90;;
24409;SDS011;12543;53.364;-1.504;2023-09-19T05:25:35;5.95;;;1.55;;
24409;SDS011;12543;53.364;-1.504;2023-09-19T05:28:06;6.05;;;1.60;;
24409;SDS011;12543;53.364;-1.504;2023-09-19T05:30:34;8.48;;;1.60;;
24409;SDS011;12543;53.364;-1.504;2023-09-19T05:33:03;6.10;;;1.80;;
24409;SDS011;12543;53.364;-1.504;2023-09-19T05:35:31;7.43;;;1.90;;
24409;SDS011;12543;53.364;-1.504;2023-09-19T05:37:59;4.18;;;1.20;;
24409;SDS011;12543;53.364;-1.504;2023-09-19T05:40:27;5.43;;;1.58;;
24409;SDS011;12543;53.364;-1.504;2023-09-19T05:42:54;4.13;;;1.30;;
24409;SDS011;12543;53.364;-1.504;2023-09-19T05:45:22;2.72;;;1.13;;
24409;SDS011;12543;53.364;-1.504;2023-09-19T05:47:50;4.28;;;1.08;;
24409;SDS011;12543;53.364;-1.504;2023-09-19T05:50:22;4.72;;;1.00;;
24409;SDS011;12543;53.364;-1.504;2023-09-19T05:52:52;2.47;;;1.20;;
24409;SDS011;12543;53.364;-1.504;2023-09-19T05:55:19;2.90;;;1.33;;
24409;SDS011;12543;53.364;-1.504;2023-09-19T05:57:53;4.10;;;1.13;;
24409;SDS011;12543;53.364;-1.504;2023-09-19T06:00:21;4.20;;;1.35;;
24409;SDS011;12543;53.364;-1.504;2023-09-19T06:05:17;3.57;;;1.10;;
24409;SDS011;12543;53.364;-1.504;2023-09-19T06:07:44;4.25;;;1.50;;
24409;SDS011;12543;53.364;-1.504;2023-09-19T06:10:13;4.97;;;1.40;;
24409;SDS011;12543;53.364;-1.504;2023-09-19T06:12:41;4.45;;;1.48;;
24409;SDS011;12543;53.364;-1.504;2023-09-19T06:15:13;4.80;;;1.20;;
24409;SDS011;12543;53.364;-1.504;2023-09-19T06:17:49;4.68;;;1.70;;
24409;SDS011;12543;53.364;-1.504;2023-09-19T06:20:17;5.95;;;1.48;;
24409;SDS011;12543;53.364;-1.504;2023-09-19T06:22:46;3.15;;;1.20;;
24409;SDS011;12543;53.364;-1.504;2023-09-19T06:25:14;4.10;;;1.25;;
24409;SDS011;12543;53.364;-1.504;2023-09-19T06:27:46;2.35;;;0.90;;
24409;SDS011;12543;53.364;-1.504;2023-09-19T06:30:14;3.88;;;0.95;;
24409;SDS011;12543;53.364;-1.504;2023-09-19T06:32:44;3.28;;;0.90;;
24409;SDS011;12543;53.364;-1.504;2023-09-19T06:35:12;2.97;;;1.23;;
24409;SDS011;12543;53.364;-1.504;2023-09-19T06:37:41;3.47;;;1.08;;
24409;SDS011;12543;53.364;-1.504;2023-09-19T06:40:09;2.30;;;1.23;;
24409;SDS011;12543;53.364;-1.504;2023-09-19T06:42:49;3.47;;;0.95;;
24409;SDS011;12543;53.364;-1.504;2023-09-19T06:45:17;2.38;;;0.80;;
24409;SDS011;12543;53.364;-1.504;2023-09-19T06:47:46;2.00;;;0.80;;
24409;SDS011;12543;53.364;-1.504;2023-09-19T06:50:18;2.03;;;0.90;;
24409;SDS011;12543;53.364;-1.504;2023-09-19T06:52:54;2.90;;;1.20;;
24409;SDS011;12543;53.364;-1.504;2023-09-19T06:55:26;2.37;;;1.37;;
24409;SDS011;12543;53.364;-1.504;2023-09-19T06:57:58;2.30;;;1.02;;
24409;SDS011;12543;53.364;-1.504;2023-09-19T07:00:26;5.03;;;1.65;;
24409;SDS011;12543;53.364;-1.504;2023-09-19T07:05:23;5.05;;;1.63;;
24409;SDS011;12543;53.364;-1.504;2023-09-19T07:07:50;3.80;;;1.20;;
24409;SDS011;12543;53.364;-1.504;2023-09-19T07:10:18;4.10;;;2.00;;
24409;SDS011;12543;53.364;-1.504;2023-09-19T07:15:14;4.15;;;1.88;;
24409;SDS011;12543;53.364;-1.504;2023-09-19T07:17:41;7.53;;;2.00;;
24409;SDS011;12543;53.364;-1.504;2023-09-19T07:20:09;9.10;;;2.50;;
24409;SDS011;12543;53.364;-1.504;2023-09-19T07:22:37;6.40;;;1.90;;
24409;SDS011;12543;53.364;-1.504;2023-09-19T07:25:06;7.38;;;2.10;;
24409;SDS011;12543;53.364;-1.504;2023-09-19T07:27:33;6.07;;;2.30;;
24409;SDS011;12543;53.364;-1.504;2023-09-19T07:30:01;4.70;;;2.08;;
24409;SDS011;12543;53.364;-1.504;2023-09-19T07:32:29;8.27;;;2.17;;
24409;SDS011;12543;53.364;-1.504;2023-09-19T07:34:57;4.60;;;2.10;;
24409;SDS011;12543;53.364;-1.504;2023-09-19T07:37:25;6.90;;;1.70;;
24409;SDS011;12543;53.364;-1.504;2023-09-19T07:39:53;6.47;;;2.10;;
24409;SDS011;12543;53.364;-1.504;2023-09-19T07:42:20;7.28;;;2.10;;
24409;SDS011;12543;53.364;-1.504;2023-09-19T07:44:48;5.82;;;1.83;;
24409;SDS011;12543;53.364;-1.504;2023-09-19T07:47:17;4.68;;;2.13;;
24409;SDS011;12543;53.364;-1.504;2023-09-19T07:49:46;7.00;;;1.77;;
24409;SDS011;12543;53.364;-1.504;2023-09-19T07:52:14;7.80;;;2.72;;
24409;SDS011;12543;53.364;-1.504;2023-09-19T07:54:42;6.07;;;2.45;;
24409;SDS011;12543;53.364;-1.504;2023-09-19T07:57:11;5.65;;;2.45;;
24409;SDS011;12543;53.364;-1.504;2023-09-19T07:59:38;5.27;;;1.93;;
24409;SDS011;12543;53.364;-1.504;2023-09-19T08:02:08;6.25;;;2.30;;
24409;SDS011;12543;53.364;-1.504;2023-09-19T08:04:42;4.57;;;2.00;;
24409;SDS011;12543;53.364;-1.504;2023-09-19T08:07:12;6.93;;;2.70;;
24409;SDS011;12543;53.364;-1.504;2023-09-19T08:09:40;4.30;;;1.88;;
24409;SDS011;12543;53.364;-1.504;2023-09-19T08:12:08;7.18;;;1.90;;
24409;SDS011;12543;53.364;-1.504;2023-09-19T08:14:37;6.47;;;2.22;;
24409;SDS011;12543;53.364;-1.504;2023-09-19T08:17:04;5.97;;;1.80;;
24409;SDS011;12543;53.364;-1.504;2023-09-19T08:19:32;4.80;;;2.05;;
24409;SDS011;12543;53.364;-1.504;2023-09-19T08:22:00;3.60;;;1.87;;
24409;SDS011;12543;53.364;-1.504;2023-09-19T08:24:28;5.35;;;2.08;;
24409;SDS011;12543;53.364;-1.504;2023-09-19T08:26:55;3.47;;;1.92;;
24409;SDS011;12543;53.364;-1.504;2023-09-19T08:29:23;4.30;;;1.60;;
24409;SDS011;12543;53.364;-1.504;2023-09-19T08:31:56;5.45;;;1.70;;
24409;SDS011;12543;53.364;-1.504;2023-09-19T08:34:26;5.20;;;1.48;;
24409;SDS011;12543;53.364;-1.504;2023-09-19T08:36:56;3.83;;;1.75;;
24409;SDS011;12543;53.364;-1.504;2023-09-19T08:39:24;4.45;;;1.55;;
24409;SDS011;12543;53.364;-1.504;2023-09-19T08:41:58;4.60;;;1.60;;
24409;SDS011;12543;53.364;-1.504;2023-09-19T08:44:26;4.72;;;1.58;;
24409;SDS011;12543;53.364;-1.504;2023-09-19T08:47:01;3.60;;;1.52;;
24409;SDS011;12543;53.364;-1.504;2023-09-19T08:49:53;3.13;;;1.40;;
24409;SDS011;12543;53.364;-1.504;2023-09-19T08:54:53;1.95;;;1.15;;
24409;SDS011;12543;53.364;-1.504;2023-09-19T08:57:25;2.88;;;1.20;;
24409;SDS011;12543;53.364;-1.504;2023-09-19T08:59:56;4.18;;;1.35;;
24409;SDS011;12543;53.364;-1.504;2023-09-19T09:02:25;2.72;;;1.40;;
24409;SDS011;12543;53.364;-1.504;2023-09-19T09:04:54;2.60;;;0.90;;
24409;SDS011;12543;53.364;-1.504;2023-09-19T09:07:22;2.70;;;1.15;;
24409;SDS011;12543;53.364;-1.504;2023-09-19T09:09:50;3.15;;;1.20;;
24409;SDS011;12543;53.364;-1.504;2023-09-19T09:12:17;1.92;;;1.08;;
24409;SDS011;12543;53.364;-1.504;2023-09-19T09:14:47;2.65;;;1.15;;
24409;SDS011;12543;53.364;-1.504;2023-09-19T09:17:17;2.13;;;0.85;;
24409;SDS011;12543;53.364;-1.504;2023-09-19T09:19:48;1.80;;;0.80;;
24409;SDS011;12543;53.364;-1.504;2023-09-19T09:22:16;1.73;;;0.90;;
24409;SDS011;12543;53.364;-1.504;2023-09-19T09:24:51;1.48;;;0.90;;
24409;SDS011;12543;53.364;-1.504;2023-09-19T09:27:20;1.60;;;0.70;;
24409;SDS011;12543;53.364;-1.504;2023-09-19T09:29:51;3.08;;;0.90;;
24409;SDS011;12543;53.364;-1.504;2023-09-19T09:32:28;1.10;;;0.70;;
24409;SDS011;12543;53.364;-1.504;2023-09-19T09:34:59;1.27;;;0.50;;
24409;SDS011;12543;53.364;-1.504;2023-09-19T09:37:28;3.05;;;0.80;;
24409;SDS011;12543;53.364;-1.504;2023-09-19T09:40:00;1.00;;;0.50;;
24409;SDS011;12543;53.364;-1.504;2023-09-19T09:42:43;1.92;;;0.60;;
24409;SDS011;12543;53.364;-1.504;2023-09-19T09:47:41;0.47;;;0.47;;
24409;SDS011;12543;53.364;-1.504;2023-09-19T09:50:11;0.45;;;0.38;;
24409;SDS011;12543;53.364;-1.504;2023-09-19T09:52:44;0.70;;;0.35;;
24409;SDS011;12543;53.364;-1.504;2023-09-19T09:55:12;1.23;;;0.43;;
24409;SDS011;12543;53.364;-1.504;2023-09-19T09:57:40;0.70;;;0.50;;
24409;SDS011;12543;53.364;-1.504;2023-09-19T10:00:08;0.70;;;0.30;;
24409;SDS011;12543;53.364;-1.504;2023-09-19T10:02:40;0.63;;;0.40;;
24409;SDS011;12543;53.364;-1.504;2023-09-19T10:05:15;0.47;;;0.35;;
24409;SDS011;12543;53.364;-1.504;2023-09-19T10:07:48;0.45;;;0.20;;
24409;SDS011;12543;53.364;-1.504;2023-09-19T10:13:12;0.20;;;0.20;;
24409;SDS011;12543;53.364;-1.504;2023-09-19T10:15:42;3.13;;;0.30;;
24409;SDS011;12543;53.364;-1.504;2023-09-19T10:18:15;0.40;;;0.30;;
24409;SDS011;12543;53.364;-1.504;2023-09-19T10:20:45;0.20;;;0.20;;
24409;SDS011;12543;53.364;-1.504;2023-09-19T10:23:13;0.50;;;0.10;;
24409;SDS011;12543;53.364;-1.504;2023-09-19T10:25:42;0.38;;;0.35;;
24409;SDS011;12543;53.364;-1.504;2023-09-19T10:28:10;2.08;;;0.20;;
24409;SDS011;12543;53.364;-1.504;2023-09-19T10:30:46;0.10;;;0.10;;
24409;SDS011;12543;53.364;-1.504;2023-09-19T10:33:14;0.22;;;0.10;;
24409;SDS011;12543;53.364;-1.504;2023-09-19T10:35:43;0.08;;;0.00;;
24409;SDS011;12543;53.364;-1.504;2023-09-19T10:38:12;0.10;;;0.10;;
24409;SDS011;12543;53.364;-1.504;2023-09-19T10:40:44;0.35;;;0.20;;
24409;SDS011;12543;53.364;-1.504;2023-09-19T10:43:17;0.17;;;0.10;;
24409;SDS011;12543;53.364;-1.504;2023-09-19T10:45:45;0.10;;;0.10;;
24409;SDS011;12543;53.364;-1.504;2023-09-19T10:48:16;0.70;;;0.10;;
24409;SDS011;12543;53.364;-1.504;2023-09-19T10:51:09;0.17;;;0.10;;
24409;SDS011;12543;53.364;-1.504;2023-09-19T10:53:41;0.10;;;0.10;;
24409;SDS011;12543;53.364;-1.504;2023-09-19T10:56:10;0.45;;;0.10;;
24409;SDS011;12543;53.364;-1.504;2023-09-19T10:58:43;0.40;;;0.20;;
24409;SDS011;12543;53.364;-1.504;2023-09-19T11:01:11;0.10;;;0.10;;
24409;SDS011;12543;53.364;-1.504;2023-09-19T11:03:41;0.17;;;0.03;;
24409;SDS011;12543;53.364;-1.504;2023-09-19T11:06:21;2.60;;;0.20;;
24409;SDS011;12543;53.364;-1.504;2023-09-19T11:08:52;0.10;;;0.10;;
24409;SDS011;12543;53.364;-1.504;2023-09-19T11:11:44;0.57;;;0.10;;
24409;SDS011;12543;53.364;-1.504;2023-09-19T11:22:53;1.08;;;0.20;;
24409;SDS011;12543;53.364;-1.504;2023-09-19T11:30:33;0.30;;;0.20;;
24409;SDS011;12543;53.364;-1.504;2023-09-19T11:36:13;1.38;;;0.10;;
24409;SDS011;12543;53.364;-1.504;2023-09-19T11:46:33;0.17;;;0.10;;
24409;SDS011;12543;53.364;-1.504;2023-09-19T11:49:08;1.00;;;0.20;;
24409;SDS011;12543;53.364;-1.504;2023-09-19T11:51:43;0.75;;;0.10;;
24409;SDS011;12543;53.364;-1.504;2023-09-19T11:56:44;0.15;;;0.15;;
24409;SDS011;12543;53.364;-1.504;2023-09-19T11:59:25;0.50;;;0.32;;
24409;SDS011;12543;53.364;-1.504;2023-09-19T12:01:57;0.40;;;0.20;;
24409;SDS011;12543;53.364;-1.504;2023-09-19T12:06:58;0.98;;;0.20;;
24409;SDS011;12543;53.364;-1.504;2023-09-19T12:09:26;0.65;;;0.30;;
24409;SDS011;12543;53.364;-1.504;2023-09-19T12:14:22;0.20;;;0.20;;
24409;SDS011;12543;53.364;-1.504;2023-09-19T12:16:57;0.47;;;0.10;;
24409;SDS011;12543;53.364;-1.504;2023-09-19T12:19:27;0.77;;;0.20;;
24409;SDS011;12543;53.364;-1.504;2023-09-19T12:24:25;0.13;;;0.13;;
24409;SDS011;12543;53.364;-1.504;2023-09-19T12:29:20;0.30;;;0.20;;
24409;SDS011;12543;53.364;-1.504;2023-09-19T12:34:27;0.75;;;0.28;;
24409;SDS011;12543;53.364;-1.504;2023-09-19T12:42:10;0.17;;;0.10;;
24409;SDS011;12543;53.364;-1.504;2023-09-19T12:44:45;0.13;;;0.10;;
24409;SDS011;12543;53.364;-1.504;2023-09-19T12:47:14;0.10;;;0.10;;
24409;SDS011;12543;53.364;-1.504;2023-09-19T12:50:05;0.10;;;0.10;;
24409;SDS011;12543;53.364;-1.504;2023-09-19T12:52:37;0.10;;;0.10;;
24409;SDS011;12543;53.364;-1.504;2023-09-19T12:55:05;0.20;;;0.10;;
24409;SDS011;12543;53.364;-1.504;2023-09-19T12:57:37;0.63;;;0.10;;
24409;SDS011;12543;53.364;-1.504;2023-09-19T13:00:05;0.63;;;0.20;;
24409;SDS011;12543;53.364;-1.504;2023-09-19T13:02:34;0.20;;;0.20;;
24409;SDS011;12543;53.364;-1.504;2023-09-19T13:05:02;0.30;;;0.20;;
24409;SDS011;12543;53.364;-1.504;2023-09-19T13:07:39;0.13;;;0.10;;
24409;SDS011;12543;53.364;-1.504;2023-09-19T13:10:10;0.38;;;0.20;;
24409;SDS011;12543;53.364;-1.504;2023-09-19T13:12:41;1.02;;;0.20;;
24409;SDS011;12543;53.364;-1.504;2023-09-19T13:15:11;0.13;;;0.13;;
24409;SDS011;12543;53.364;-1.504;2023-09-19T13:17:44;1.48;;;0.10;;
24409;SDS011;12543;53.364;-1.504;2023-09-19T13:20:20;0.52;;;0.13;;
24409;SDS011;12543;53.364;-1.504;2023-09-19T13:22:51;0.15;;;0.15;;
24409;SDS011;12543;53.364;-1.504;2023-09-19T13:25:21;0.10;;;0.10;;
24409;SDS011;12543;53.364;-1.504;2023-09-19T13:27:53;0.38;;;0.25;;
24409;SDS011;12543;53.364;-1.504;2023-09-19T13:30:23;0.40;;;0.20;;
24409;SDS011;12543;53.364;-1.504;2023-09-19T13:32:52;1.92;;;0.30;;
24409;SDS011;12543;53.364;-1.504;2023-09-19T13:35:20;0.63;;;0.28;;
24409;SDS011;12543;53.364;-1.504;2023-09-19T13:37:47;1.38;;;0.40;;
24409;SDS011;12543;53.364;-1.504;2023-09-19T13:40:18;1.38;;;0.63;;
24409;SDS011;12543;53.364;-1.504;2023-09-19T13:42:46;1.00;;;0.30;;
24409;SDS011;12543;53.364;-1.504;2023-09-19T13:45:14;0.73;;;0.30;;
24409;SDS011;12543;53.364;-1.504;2023-09-19T13:47:44;0.93;;;0.38;;
24409;SDS011;12543;53.364;-1.504;2023-09-19T13:50:12;1.47;;;0.57;;
24409;SDS011;12543;53.364;-1.504;2023-09-19T13:52:39;1.20;;;0.50;;
24409;SDS011;12543;53.364;-1.504;2023-09-19T13:55:07;1.50;;;0.70;;
24409;SDS011;12543;53.364;-1.504;2023-09-19T13:57:35;2.28;;;0.60;;
24409;SDS011;12543;53.364;-1.504;2023-09-19T14:00:02;1.83;;;0.60;;
24409;SDS011;12543;53.364;-1.504;2023-09-19T14:02:37;1.42;;;0.50;;
24409;SDS011;12543;53.364;-1.504;2023-09-19T14:05:06;1.75;;;0.50;;
24409;SDS011;12543;53.364;-1.504;2023-09-19T14:07:33;0.95;;;0.50;;
24409;SDS011;12543;53.364;-1.504;2023-09-19T14:10:01;0.60;;;0.43;;
24409;SDS011;12543;53.364;-1.504;2023-09-19T14:12:29;2.17;;;0.55;;
24409;SDS011;12543;53.364;-1.504;2023-09-19T14:14:57;1.08;;;0.45;;
24409;SDS011;12543;53.364;-1.504;2023-09-19T14:17:25;2.20;;;0.47;;
24409;SDS011;12543;53.364;-1.504;2023-09-19T14:19:53;1.40;;;0.47;;
24409;SDS011;12543;53.364;-1.504;2023-09-19T14:24:49;1.03;;;0.50;;
24409;SDS011;12543;53.364;-1.504;2023-09-19T14:27:16;1.17;;;0.50;;
24409;SDS011;12543;53.364;-1.504;2023-09-19T14:29:44;1.73;;;0.52;;
24409;SDS011;12543;53.364;-1.504;2023-09-19T14:32:12;1.52;;;0.68;;
24409;SDS011;12543;53.364;-1.504;2023-09-19T14:34:39;2.47;;;0.82;;
24409;SDS011;12543;53.364;-1.504;2023-09-19T14:37:09;2.85;;;0.90;;
24409;SDS011;12543;53.364;-1.504;2023-09-19T14:39:40;6.40;;;1.33;;
24409;SDS011;12543;53.364;-1.504;2023-09-19T14:42:11;6.47;;;1.80;;
24409;SDS011;12543;53.364;-1.504;2023-09-19T14:44:41;4.70;;;1.20;;
24409;SDS011;12543;53.364;-1.504;2023-09-19T14:47:08;5.53;;;1.50;;
24409;SDS011;12543;53.364;-1.504;2023-09-19T14:49:40;9.32;;;1.30;;
24409;SDS011;12543;53.364;-1.504;2023-09-19T14:52:08;5.43;;;1.07;;
24409;SDS011;12543;53.364;-1.504;2023-09-19T14:57:04;5.30;;;1.40;;
24409;SDS011;12543;53.364;-1.504;2023-09-19T14:59:32;3.20;;;0.97;;
24409;SDS011;12543;53.364;-1.504;2023-09-19T15:01:59;4.22;;;1.33;;
24409;SDS011;12543;53.364;-1.504;2023-09-19T15:04:27;5.00;;;1.55;;
24409;SDS011;12543;53.364;-1.504;2023-09-19T15:06:55;4.57;;;1.45;;
24409;SDS011;12543;53.364;-1.504;2023-09-19T15:09:23;8.17;;;1.83;;
24409;SDS011;12543;53.364;-1.504;2023-09-19T15:11:53;7.47;;;1.80;;
24409;SDS011;12543;53.364;-1.504;2023-09-19T15:14:20;3.97;;;1.35;;
24409;SDS011;12543;53.364;-1.504;2023-09-19T15:16:48;7.28;;;1.52;;
24409;SDS011;12543;53.364;-1.504;2023-09-19T15:19:16;5.47;;;1.40;;
24409;SDS011;12543;53.364;-1.504;2023-09-19T15:21:44;8.90;;;2.10;;
24409;SDS011;12543;53.364;-1.504;2023-09-19T15:24:11;7.73;;;1.73;;
24409;SDS011;12543;53.364;-1.504;2023-09-19T15:26:39;6.00;;;1.42;;
24409;SDS011;12543;53.364;-1.504;2023-09-19T15:29:07;6.60;;;1.37;;
24409;SDS011;12543;53.364;-1.504;2023-09-19T15:31:36;4.13;;;1.48;;
24409;SDS011;12543;53.364;-1.504;2023-09-19T15:34:04;4.28;;;1.15;;
24409;SDS011;12543;53.364;-1.504;2023-09-19T15:36:33;4.95;;;1.48;;
24409;SDS011;12543;53.364;-1.504;2023-09-19T15:39:02;7.28;;;2.10;;
24409;SDS011;12543;53.364;-1.504;2023-09-19T15:41:34;5.18;;;1.52;;
24409;SDS011;12543;53.364;-1.504;2023-09-19T15:44:04;7.50;;;1.40;;
24409;SDS011;12543;53.364;-1.504;2023-09-19T15:46:32;5.55;;;1.38;;
24409;SDS011;12543;53.364;-1.504;2023-09-19T15:49:02;5.90;;;1.55;;
24409;SDS011;12543;53.364;-1.504;2023-09-19T15:51:30;5.65;;;1.40;;
24409;SDS011;12543;53.364;-1.504;2023-09-19T15:53:57;4.55;;;1.65;;
24409;SDS011;12543;53.364;-1.504;2023-09-19T15:56:27;4.40;;;1.45;;
24409;SDS011;12543;53.364;-1.504;2023-09-19T15:58:54;5.73;;;1.23;;
24409;SDS011;12543;53.364;-1.504;2023-09-19T16:01:22;3.60;;;1.40;;
24409;SDS011;12543;53.364;-1.504;2023-09-19T16:03:51;6.20;;;1.30;;
24409;SDS011;12543;53.364;-1.504;2023-09-19T16:06:20;4.68;;;1.50;;
24409;SDS011;12543;53.364;-1.504;2023-09-19T16:08:51;7.32;;;1.90;;
24409;SDS011;12543;53.364;-1.504;2023-09-19T16:11:18;5.03;;;1.30;;
24409;SDS011;12543;53.364;-1.504;2023-09-19T16:13:48;5.25;;;1.40;;
24409;SDS011;12543;53.364;-1.504;2023-09-19T16:16:16;6.03;;;1.55;;